sensor_id;sensor_type;location;lat;lon;timestamp;temperature;humidity
8824;DHT22;4448;50.904;4.694;2023-03-01T00:01:59;3.30;99.90
8824;DHT22;4448;50.904;4.694;2023-03-01T00:04:24;3.30;99.90
8824;DHT22;4448;50.904;4.694;2023-03-01T00:06:50;3.30;99.90
8824;DHT22;4448;50.904;4.694;2023-03-01T00:09:16;3.30;99.90
8824;DHT22;4448;50.904;4.694;2023-03-01T00:11:42;3.30;99.90
8824;DHT22;4448;50.904;4.694;2023-03-01T00:14:08;3.30;99.90
8824;DHT22;4448;50.904;4.694;2023-03-01T00:16:36;3.30;99.90
8824;DHT22;4448;50.904;4.694;2023-03-01T00:19:04;3.30;99.90
8824;DHT22;4448;50.904;4.694;2023-03-01T00:21:30;3.30;99.90
8824;DHT22;4448;50.904;4.694;2023-03-01T00:23:56;3.30;99.90
8824;DHT22;4448;50.904;4.694;2023-03-01T00:26:23;3.20;99.90
8824;DHT22;4448;50.904;4.694;2023-03-01T00:28:49;3.20;99.90
8824;DHT22;4448;50.904;4.694;2023-03-01T00:31:18;3.20;99.90
8824;DHT22;4448;50.904;4.694;2023-03-01T00:33:44;3.20;99.90
8824;DHT22;4448;50.904;4.694;2023-03-01T00:36:12;3.20;99.90
8824;DHT22;4448;50.904;4.694;2023-03-01T00:38:41;3.20;99.90
8824;DHT22;4448;50.904;4.694;2023-03-01T00:41:08;3.20;99.90
8824;DHT22;4448;50.904;4.694;2023-03-01T00:43:34;3.20;99.90
8824;DHT22;4448;50.904;4.694;2023-03-01T00:46:04;3.20;99.90
8824;DHT22;4448;50.904;4.694;2023-03-01T00:48:30;3.20;99.90
8824;DHT22;4448;50.904;4.694;2023-03-01T00:50:55;3.10;99.90
8824;DHT22;4448;50.904;4.694;2023-03-01T00:53:21;3.10;99.90
8824;DHT22;4448;50.904;4.694;2023-03-01T00:55:47;3.00;99.90
8824;DHT22;4448;50.904;4.694;2023-03-01T00:58:12;3.00;99.90
8824;DHT22;4448;50.904;4.694;2023-03-01T01:00:38;3.00;99.90
8824;DHT22;4448;50.904;4.694;2023-03-01T01:03:03;3.00;99.90
8824;DHT22;4448;50.904;4.694;2023-03-01T01:05:29;2.90;99.90
8824;DHT22;4448;50.904;4.694;2023-03-01T01:07:55;3.00;99.90
8824;DHT22;4448;50.904;4.694;2023-03-01T01:10:20;3.00;99.90
8824;DHT22;4448;50.904;4.694;2023-03-01T01:12:46;3.00;99.90
8824;DHT22;4448;50.904;4.694;2023-03-01T01:15:12;3.00;99.90
8824;DHT22;4448;50.904;4.694;2023-03-01T01:17:39;3.00;99.90
8824;DHT22;4448;50.904;4.694;2023-03-01T01:20:06;2.90;99.90
8824;DHT22;4448;50.904;4.694;2023-03-01T01:22:31;2.90;99.90
8824;DHT22;4448;50.904;4.694;2023-03-01T01:24:57;2.90;99.90
8824;DHT22;4448;50.904;4.694;2023-03-01T01:27:23;2.90;99.90
8824;DHT22;4448;50.904;4.694;2023-03-01T01:29:48;2.90;99.90
8824;DHT22;4448;50.904;4.694;2023-03-01T01:32:14;2.90;99.90
8824;DHT22;4448;50.904;4.694;2023-03-01T01:34:40;2.90;99.90
8824;DHT22;4448;50.904;4.694;2023-03-01T01:37:05;2.80;99.90
8824;DHT22;4448;50.904;4.694;2023-03-01T01:39:36;2.90;99.90
8824;DHT22;4448;50.904;4.694;2023-03-01T01:42:02;2.90;99.90
8824;DHT22;4448;50.904;4.694;2023-03-01T01:44:28;2.90;99.90
8824;DHT22;4448;50.904;4.694;2023-03-01T01:47:07;2.90;99.90
8824;DHT22;4448;50.904;4.694;2023-03-01T01:49:47;2.80;99.90
8824;DHT22;4448;50.904;4.694;2023-03-01T01:57:37;2.80;99.90
8824;DHT22;4448;50.904;4.694;2023-03-01T02:00:25;2.90;99.90
8824;DHT22;4448;50.904;4.694;2023-03-01T02:02:57;2.90;99.90
8824;DHT22;4448;50.904;4.694;2023-03-01T02:08:12;2.80;99.90
8824;DHT22;4448;50.904;4.694;2023-03-01T02:10:39;2.80;99.90
8824;DHT22;4448;50.904;4.694;2023-03-01T02:13:06;2.80;99.90
8824;DHT22;4448;50.904;4.694;2023-03-01T02:15:37;2.80;99.90
8824;DHT22;4448;50.904;4.694;2023-03-01T02:18:04;2.80;99.90
8824;DHT22;4448;50.904;4.694;2023-03-01T02:20:43;2.80;99.90
8824;DHT22;4448;50.904;4.694;2023-03-01T02:23:11;2.80;99.90
8824;DHT22;4448;50.904;4.694;2023-03-01T02:26:33;2.80;99.90
8824;DHT22;4448;50.904;4.694;2023-03-01T02:28:37;2.80;99.90
8824;DHT22;4448;50.904;4.694;2023-03-01T02:31:06;2.80;99.90
8824;DHT22;4448;50.904;4.694;2023-03-01T02:33:51;2.70;99.90
8824;DHT22;4448;50.904;4.694;2023-03-01T02:36:40;2.70;99.90
8824;DHT22;4448;50.904;4.694;2023-03-01T02:39:07;2.70;99.90
8824;DHT22;4448;50.904;4.694;2023-03-01T02:41:42;2.70;99.90
8824;DHT22;4448;50.904;4.694;2023-03-01T02:44:08;2.70;99.90
8824;DHT22;4448;50.904;4.694;2023-03-01T02:46:42;2.70;99.90
8824;DHT22;4448;50.904;4.694;2023-03-01T02:49:26;2.70;99.90
8824;DHT22;4448;50.904;4.694;2023-03-01T02:54:48;2.70;99.90
8824;DHT22;4448;50.904;4.694;2023-03-01T02:57:18;2.70;99.90
8824;DHT22;4448;50.904;4.694;2023-03-01T02:59:44;2.60;99.90
8824;DHT22;4448;50.904;4.694;2023-03-01T03:02:21;2.60;99.90
8824;DHT22;4448;50.904;4.694;2023-03-01T03:05:03;2.60;99.90
8824;DHT22;4448;50.904;4.694;2023-03-01T03:07:28;2.60;99.90
8824;DHT22;4448;50.904;4.694;2023-03-01T03:09:54;2.60;99.90
8824;DHT22;4448;50.904;4.694;2023-03-01T03:12:20;2.60;99.90
8824;DHT22;4448;50.904;4.694;2023-03-01T03:14:45;2.60;99.90
8824;DHT22;4448;50.904;4.694;2023-03-01T03:17:11;2.50;99.90
8824;DHT22;4448;50.904;4.694;2023-03-01T03:19:36;2.50;99.90
8824;DHT22;4448;50.904;4.694;2023-03-01T03:22:02;2.50;99.90
8824;DHT22;4448;50.904;4.694;2023-03-01T03:24:28;2.50;99.90
8824;DHT22;4448;50.904;4.694;2023-03-01T03:26:54;2.50;99.90
8824;DHT22;4448;50.904;4.694;2023-03-01T03:29:19;2.50;99.90
8824;DHT22;4448;50.904;4.694;2023-03-01T03:31:45;2.40;99.90
8824;DHT22;4448;50.904;4.694;2023-03-01T03:34:10;2.40;99.90
8824;DHT22;4448;50.904;4.694;2023-03-01T03:36:43;2.40;99.90
8824;DHT22;4448;50.904;4.694;2023-03-01T03:39:08;2.40;99.90
8824;DHT22;4448;50.904;4.694;2023-03-01T03:41:34;2.30;99.90
8824;DHT22;4448;50.904;4.694;2023-03-01T03:44:00;2.30;99.90
8824;DHT22;4448;50.904;4.694;2023-03-01T03:46:26;2.30;99.90
8824;DHT22;4448;50.904;4.694;2023-03-01T03:48:51;2.30;99.90
8824;DHT22;4448;50.904;4.694;2023-03-01T03:51:18;2.30;99.90
8824;DHT22;4448;50.904;4.694;2023-03-01T03:53:45;2.30;99.90
8824;DHT22;4448;50.904;4.694;2023-03-01T03:56:11;2.30;99.90
8824;DHT22;4448;50.904;4.694;2023-03-01T03:58:37;2.30;99.90
8824;DHT22;4448;50.904;4.694;2023-03-01T04:01:03;2.30;99.90
8824;DHT22;4448;50.904;4.694;2023-03-01T04:03:30;2.30;99.90
8824;DHT22;4448;50.904;4.694;2023-03-01T04:06:00;2.30;99.90
8824;DHT22;4448;50.904;4.694;2023-03-01T04:08:27;2.30;99.90
8824;DHT22;4448;50.904;4.694;2023-03-01T04:10:58;2.30;99.90
8824;DHT22;4448;50.904;4.694;2023-03-01T04:13:23;2.30;99.90
8824;DHT22;4448;50.904;4.694;2023-03-01T04:15:52;2.30;99.90
8824;DHT22;4448;50.904;4.694;2023-03-01T04:18:20;2.30;99.90
8824;DHT22;4448;50.904;4.694;2023-03-01T04:20:46;2.30;99.90
8824;DHT22;4448;50.904;4.694;2023-03-01T04:23:13;2.20;99.90
8824;DHT22;4448;50.904;4.694;2023-03-01T04:25:48;2.30;99.90
8824;DHT22;4448;50.904;4.694;2023-03-01T04:28:23;2.20;99.90
8824;DHT22;4448;50.904;4.694;2023-03-01T04:30:52;2.20;99.90
8824;DHT22;4448;50.904;4.694;2023-03-01T04:33:19;2.20;99.90
8824;DHT22;4448;50.904;4.694;2023-03-01T04:35:45;2.20;99.90
8824;DHT22;4448;50.904;4.694;2023-03-01T04:38:10;2.10;99.90
8824;DHT22;4448;50.904;4.694;2023-03-01T04:40:36;2.10;99.90
8824;DHT22;4448;50.904;4.694;2023-03-01T04:43:03;2.10;99.90
8824;DHT22;4448;50.904;4.694;2023-03-01T04:45:29;2.10;99.90
8824;DHT22;4448;50.904;4.694;2023-03-01T04:47:56;2.10;99.90
8824;DHT22;4448;50.904;4.694;2023-03-01T04:50:23;2.10;99.90
8824;DHT22;4448;50.904;4.694;2023-03-01T04:52:51;2.00;99.90
8824;DHT22;4448;50.904;4.694;2023-03-01T04:55:17;2.00;99.90
8824;DHT22;4448;50.904;4.694;2023-03-01T04:57:43;2.00;99.90
8824;DHT22;4448;50.904;4.694;2023-03-01T05:00:15;2.00;99.90
8824;DHT22;4448;50.904;4.694;2023-03-01T05:02:53;2.00;99.90
8824;DHT22;4448;50.904;4.694;2023-03-01T05:05:41;2.00;99.90
8824;DHT22;4448;50.904;4.694;2023-03-01T05:08:07;2.00;99.90
8824;DHT22;4448;50.904;4.694;2023-03-01T05:10:35;2.00;99.90
8824;DHT22;4448;50.904;4.694;2023-03-01T05:13:02;2.00;99.90
8824;DHT22;4448;50.904;4.694;2023-03-01T05:15:30;1.90;99.90
8824;DHT22;4448;50.904;4.694;2023-03-01T05:17:58;1.90;99.90
8824;DHT22;4448;50.904;4.694;2023-03-01T05:20:25;1.90;99.90
8824;DHT22;4448;50.904;4.694;2023-03-01T05:22:53;1.90;99.90
8824;DHT22;4448;50.904;4.694;2023-03-01T05:25:20;1.90;99.90
8824;DHT22;4448;50.904;4.694;2023-03-01T05:27:46;1.90;99.90
8824;DHT22;4448;50.904;4.694;2023-03-01T05:30:12;1.90;99.90
8824;DHT22;4448;50.904;4.694;2023-03-01T05:32:43;1.90;99.90
8824;DHT22;4448;50.904;4.694;2023-03-01T05:35:14;1.90;99.90
8824;DHT22;4448;50.904;4.694;2023-03-01T05:37:44;1.90;99.90
8824;DHT22;4448;50.904;4.694;2023-03-01T05:40:15;1.90;99.90
8824;DHT22;4448;50.904;4.694;2023-03-01T05:42:43;1.90;99.90
8824;DHT22;4448;50.904;4.694;2023-03-01T05:45:10;1.90;99.90
8824;DHT22;4448;50.904;4.694;2023-03-01T05:47:38;1.90;99.90
8824;DHT22;4448;50.904;4.694;2023-03-01T05:50:13;1.80;99.90
8824;DHT22;4448;50.904;4.694;2023-03-01T05:52:39;1.80;99.90
8824;DHT22;4448;50.904;4.694;2023-03-01T05:55:05;1.80;99.90
8824;DHT22;4448;50.904;4.694;2023-03-01T05:57:31;1.80;99.90
8824;DHT22;4448;50.904;4.694;2023-03-01T05:59:57;1.80;99.90
8824;DHT22;4448;50.904;4.694;2023-03-01T06:02:23;1.80;99.90
8824;DHT22;4448;50.904;4.694;2023-03-01T06:04:48;1.80;99.90
8824;DHT22;4448;50.904;4.694;2023-03-01T06:07:14;1.70;99.90
8824;DHT22;4448;50.904;4.694;2023-03-01T06:09:39;1.70;99.90
8824;DHT22;4448;50.904;4.694;2023-03-01T06:12:05;1.70;99.90
8824;DHT22;4448;50.904;4.694;2023-03-01T06:14:31;1.70;99.90
8824;DHT22;4448;50.904;4.694;2023-03-01T06:16:57;1.70;99.90
8824;DHT22;4448;50.904;4.694;2023-03-01T06:19:23;1.70;99.90
8824;DHT22;4448;50.904;4.694;2023-03-01T06:21:49;1.70;99.90
8824;DHT22;4448;50.904;4.694;2023-03-01T06:24:15;1.70;99.90
8824;DHT22;4448;50.904;4.694;2023-03-01T06:26:40;1.70;99.90
8824;DHT22;4448;50.904;4.694;2023-03-01T06:29:07;1.70;99.90
8824;DHT22;4448;50.904;4.694;2023-03-01T06:31:34;1.70;99.90
8824;DHT22;4448;50.904;4.694;2023-03-01T06:33:59;1.70;99.90
8824;DHT22;4448;50.904;4.694;2023-03-01T06:36:25;1.70;99.90
8824;DHT22;4448;50.904;4.694;2023-03-01T06:38:51;1.70;99.90
8824;DHT22;4448;50.904;4.694;2023-03-01T06:41:17;1.80;99.90
8824;DHT22;4448;50.904;4.694;2023-03-01T06:43:42;1.70;99.90
8824;DHT22;4448;50.904;4.694;2023-03-01T06:46:08;1.70;99.90
8824;DHT22;4448;50.904;4.694;2023-03-01T06:48:34;1.70;99.90
8824;DHT22;4448;50.904;4.694;2023-03-01T06:51:00;1.70;99.90
8824;DHT22;4448;50.904;4.694;2023-03-01T06:53:27;1.70;99.90
8824;DHT22;4448;50.904;4.694;2023-03-01T06:55:57;1.80;99.90
8824;DHT22;4448;50.904;4.694;2023-03-01T06:58:23;1.80;99.90
8824;DHT22;4448;50.904;4.694;2023-03-01T07:00:49;1.80;99.90
8824;DHT22;4448;50.904;4.694;2023-03-01T07:03:14;1.80;99.90
8824;DHT22;4448;50.904;4.694;2023-03-01T07:05:40;1.80;99.90
8824;DHT22;4448;50.904;4.694;2023-03-01T07:08:06;1.80;99.90
8824;DHT22;4448;50.904;4.694;2023-03-01T07:10:31;1.80;99.90
8824;DHT22;4448;50.904;4.694;2023-03-01T07:12:57;1.80;99.90
8824;DHT22;4448;50.904;4.694;2023-03-01T07:15:25;1.80;99.90
8824;DHT22;4448;50.904;4.694;2023-03-01T07:17:51;1.80;99.90
8824;DHT22;4448;50.904;4.694;2023-03-01T07:20:18;1.80;99.90
8824;DHT22;4448;50.904;4.694;2023-03-01T07:22:44;1.80;99.90
8824;DHT22;4448;50.904;4.694;2023-03-01T07:25:10;1.80;99.90
8824;DHT22;4448;50.904;4.694;2023-03-01T07:27:36;1.80;99.90
8824;DHT22;4448;50.904;4.694;2023-03-01T07:30:02;1.90;99.90
8824;DHT22;4448;50.904;4.694;2023-03-01T07:32:28;1.90;99.90
8824;DHT22;4448;50.904;4.694;2023-03-01T07:34:54;1.90;99.90
8824;DHT22;4448;50.904;4.694;2023-03-01T07:37:20;1.90;99.90
8824;DHT22;4448;50.904;4.694;2023-03-01T07:39:45;1.90;99.90
8824;DHT22;4448;50.904;4.694;2023-03-01T07:42:11;1.90;99.90
8824;DHT22;4448;50.904;4.694;2023-03-01T07:44:36;1.90;99.90
8824;DHT22;4448;50.904;4.694;2023-03-01T07:47:04;1.90;99.90
8824;DHT22;4448;50.904;4.694;2023-03-01T07:49:29;1.90;99.90
8824;DHT22;4448;50.904;4.694;2023-03-01T07:51:55;2.00;99.90
8824;DHT22;4448;50.904;4.694;2023-03-01T07:54:21;2.00;99.90
8824;DHT22;4448;50.904;4.694;2023-03-01T07:56:47;2.00;99.90
8824;DHT22;4448;50.904;4.694;2023-03-01T07:59:13;2.00;99.90
8824;DHT22;4448;50.904;4.694;2023-03-01T08:01:39;2.10;99.90
8824;DHT22;4448;50.904;4.694;2023-03-01T08:04:04;2.10;99.90
8824;DHT22;4448;50.904;4.694;2023-03-01T08:06:34;2.20;99.90
8824;DHT22;4448;50.904;4.694;2023-03-01T08:09:00;2.20;99.90
8824;DHT22;4448;50.904;4.694;2023-03-01T08:11:25;2.20;99.90
8824;DHT22;4448;50.904;4.694;2023-03-01T08:13:53;2.30;99.90
8824;DHT22;4448;50.904;4.694;2023-03-01T08:16:19;2.30;99.90
8824;DHT22;4448;50.904;4.694;2023-03-01T08:18:45;2.40;99.90
8824;DHT22;4448;50.904;4.694;2023-03-01T08:21:13;2.40;99.90
8824;DHT22;4448;50.904;4.694;2023-03-01T08:23:40;2.50;99.90
8824;DHT22;4448;50.904;4.694;2023-03-01T08:26:08;2.50;99.90
8824;DHT22;4448;50.904;4.694;2023-03-01T08:28:34;2.50;99.90
8824;DHT22;4448;50.904;4.694;2023-03-01T08:31:00;2.60;99.90
8824;DHT22;4448;50.904;4.694;2023-03-01T08:33:26;2.60;99.90
8824;DHT22;4448;50.904;4.694;2023-03-01T08:35:52;2.70;99.90
8824;DHT22;4448;50.904;4.694;2023-03-01T08:38:18;2.70;99.90
8824;DHT22;4448;50.904;4.694;2023-03-01T08:40:44;2.80;99.90
8824;DHT22;4448;50.904;4.694;2023-03-01T08:43:09;2.80;99.90
8824;DHT22;4448;50.904;4.694;2023-03-01T08:45:35;2.90;99.90
8824;DHT22;4448;50.904;4.694;2023-03-01T08:48:00;2.90;99.90
8824;DHT22;4448;50.904;4.694;2023-03-01T08:50:26;3.00;99.90
8824;DHT22;4448;50.904;4.694;2023-03-01T08:52:52;3.00;99.90
8824;DHT22;4448;50.904;4.694;2023-03-01T08:55:17;3.00;99.90
8824;DHT22;4448;50.904;4.694;2023-03-01T08:57:43;3.10;99.90
8824;DHT22;4448;50.904;4.694;2023-03-01T09:00:10;3.10;99.90
8824;DHT22;4448;50.904;4.694;2023-03-01T09:02:37;3.20;99.90
8824;DHT22;4448;50.904;4.694;2023-03-01T09:05:05;3.20;99.90
8824;DHT22;4448;50.904;4.694;2023-03-01T09:07:31;3.30;99.90
8824;DHT22;4448;50.904;4.694;2023-03-01T09:09:56;3.40;99.90
8824;DHT22;4448;50.904;4.694;2023-03-01T09:12:22;3.40;99.90
8824;DHT22;4448;50.904;4.694;2023-03-01T09:14:50;3.50;99.90
8824;DHT22;4448;50.904;4.694;2023-03-01T09:17:15;3.60;99.90
8824;DHT22;4448;50.904;4.694;2023-03-01T09:19:41;3.60;99.90
8824;DHT22;4448;50.904;4.694;2023-03-01T09:22:07;3.70;99.90
8824;DHT22;4448;50.904;4.694;2023-03-01T09:24:33;3.70;99.90
8824;DHT22;4448;50.904;4.694;2023-03-01T09:26:58;3.70;99.90
8824;DHT22;4448;50.904;4.694;2023-03-01T09:29:24;3.80;99.90
8824;DHT22;4448;50.904;4.694;2023-03-01T09:31:51;3.90;99.90
8824;DHT22;4448;50.904;4.694;2023-03-01T09:34:20;4.00;99.90
8824;DHT22;4448;50.904;4.694;2023-03-01T09:36:49;4.00;99.90
8824;DHT22;4448;50.904;4.694;2023-03-01T09:39:15;4.10;99.90
8824;DHT22;4448;50.904;4.694;2023-03-01T09:42:02;4.20;99.90
8824;DHT22;4448;50.904;4.694;2023-03-01T09:44:36;4.30;99.90
8824;DHT22;4448;50.904;4.694;2023-03-01T09:47:05;4.30;99.90
8824;DHT22;4448;50.904;4.694;2023-03-01T09:49:36;4.40;99.90
8824;DHT22;4448;50.904;4.694;2023-03-01T09:52:38;4.50;99.90
8824;DHT22;4448;50.904;4.694;2023-03-01T09:55:14;4.50;99.90
8824;DHT22;4448;50.904;4.694;2023-03-01T09:57:45;4.50;99.90
8824;DHT22;4448;50.904;4.694;2023-03-01T10:05:44;4.70;99.90
8824;DHT22;4448;50.904;4.694;2023-03-01T10:10:49;4.80;99.90
8824;DHT22;4448;50.904;4.694;2023-03-01T10:13:42;4.90;99.90
8824;DHT22;4448;50.904;4.694;2023-03-01T10:16:17;4.90;99.90
8824;DHT22;4448;50.904;4.694;2023-03-01T10:18:51;4.90;99.90
8824;DHT22;4448;50.904;4.694;2023-03-01T10:21:19;4.90;99.90
8824;DHT22;4448;50.904;4.694;2023-03-01T10:23:46;5.00;99.90
8824;DHT22;4448;50.904;4.694;2023-03-01T10:29:03;5.10;99.90
8824;DHT22;4448;50.904;4.694;2023-03-01T10:31:55;5.20;99.90
8824;DHT22;4448;50.904;4.694;2023-03-01T10:34:25;5.30;99.90
8824;DHT22;4448;50.904;4.694;2023-03-01T10:36:56;5.30;99.90
8824;DHT22;4448;50.904;4.694;2023-03-01T10:39:26;5.40;99.90
8824;DHT22;4448;50.904;4.694;2023-03-01T10:47:05;5.60;99.90
8824;DHT22;4448;50.904;4.694;2023-03-01T10:49:37;5.60;99.90
8824;DHT22;4448;50.904;4.694;2023-03-01T10:52:20;5.80;99.90
8824;DHT22;4448;50.904;4.694;2023-03-01T10:55:42;5.90;99.90
8824;DHT22;4448;50.904;4.694;2023-03-01T10:57:43;6.00;99.90
8824;DHT22;4448;50.904;4.694;2023-03-01T11:00:19;6.10;99.90
8824;DHT22;4448;50.904;4.694;2023-03-01T11:03:09;6.10;99.90
8824;DHT22;4448;50.904;4.694;2023-03-01T11:05:36;6.20;99.90
8824;DHT22;4448;50.904;4.694;2023-03-01T11:08:02;6.30;99.90
8824;DHT22;4448;50.904;4.694;2023-03-01T11:10:32;6.30;99.90
8824;DHT22;4448;50.904;4.694;2023-03-01T11:13:17;6.30;99.90
8824;DHT22;4448;50.904;4.694;2023-03-01T11:16:02;6.40;99.90
8824;DHT22;4448;50.904;4.694;2023-03-01T11:18:30;6.50;99.90
8824;DHT22;4448;50.904;4.694;2023-03-01T11:20:56;6.50;99.90
8824;DHT22;4448;50.904;4.694;2023-03-01T11:23:23;6.60;99.90
8824;DHT22;4448;50.904;4.694;2023-03-01T11:25:55;6.70;99.90
8824;DHT22;4448;50.904;4.694;2023-03-01T11:28:22;6.70;99.90
8824;DHT22;4448;50.904;4.694;2023-03-01T11:30:53;6.80;99.90
8824;DHT22;4448;50.904;4.694;2023-03-01T11:33:57;6.80;99.90
8824;DHT22;4448;50.904;4.694;2023-03-01T11:36:44;6.90;99.90
8824;DHT22;4448;50.904;4.694;2023-03-01T11:39:28;7.00;99.90
8824;DHT22;4448;50.904;4.694;2023-03-01T11:42:24;7.00;99.90
8824;DHT22;4448;50.904;4.694;2023-03-01T11:44:55;7.00;99.90
8824;DHT22;4448;50.904;4.694;2023-03-01T11:52:42;7.10;99.90
8824;DHT22;4448;50.904;4.694;2023-03-01T11:58:31;7.20;99.90
8824;DHT22;4448;50.904;4.694;2023-03-01T12:03:54;7.30;99.90
8824;DHT22;4448;50.904;4.694;2023-03-01T12:11:56;7.50;99.90
8824;DHT22;4448;50.904;4.694;2023-03-01T12:17:57;7.60;99.90
8824;DHT22;4448;50.904;4.694;2023-03-01T12:23:59;7.70;99.90
8824;DHT22;4448;50.904;4.694;2023-03-01T12:26:56;7.80;99.90
8824;DHT22;4448;50.904;4.694;2023-03-01T12:29:37;7.80;99.90
8824;DHT22;4448;50.904;4.694;2023-03-01T12:35:25;8.00;99.90
8824;DHT22;4448;50.904;4.694;2023-03-01T12:46:19;8.20;99.90
8824;DHT22;4448;50.904;4.694;2023-03-01T12:51:38;8.30;99.90
8824;DHT22;4448;50.904;4.694;2023-03-01T12:54:31;8.30;99.90
8824;DHT22;4448;50.904;4.694;2023-03-01T12:57:06;8.30;99.90
8824;DHT22;4448;50.904;4.694;2023-03-01T12:59:43;8.30;99.90
8824;DHT22;4448;50.904;4.694;2023-03-01T13:02:24;8.30;99.90
8824;DHT22;4448;50.904;4.694;2023-03-01T13:05:16;8.30;99.90
8824;DHT22;4448;50.904;4.694;2023-03-01T13:08:25;8.30;99.90
8824;DHT22;4448;50.904;4.694;2023-03-01T13:11:00;8.30;99.90
8824;DHT22;4448;50.904;4.694;2023-03-01T13:13:28;8.30;99.90
8824;DHT22;4448;50.904;4.694;2023-03-01T13:15:54;8.20;99.90
8824;DHT22;4448;50.904;4.694;2023-03-01T13:20:49;8.20;99.90
8824;DHT22;4448;50.904;4.694;2023-03-01T13:33:44;8.20;99.90
8824;DHT22;4448;50.904;4.694;2023-03-01T13:36:13;8.20;99.90
8824;DHT22;4448;50.904;4.694;2023-03-01T13:39:29;8.20;99.90
8824;DHT22;4448;50.904;4.694;2023-03-01T13:41:57;8.20;99.90
8824;DHT22;4448;50.904;4.694;2023-03-01T13:46:51;8.20;99.90
8824;DHT22;4448;50.904;4.694;2023-03-01T13:49:41;8.20;99.90
8824;DHT22;4448;50.904;4.694;2023-03-01T13:54:56;8.20;99.90
8824;DHT22;4448;50.904;4.694;2023-03-01T13:57:28;8.10;99.90
8824;DHT22;4448;50.904;4.694;2023-03-01T13:59:55;8.10;99.90
8824;DHT22;4448;50.904;4.694;2023-03-01T14:02:21;8.10;99.90
8824;DHT22;4448;50.904;4.694;2023-03-01T14:04:56;8.10;99.90
8824;DHT22;4448;50.904;4.694;2023-03-01T14:07:24;8.10;99.90
8824;DHT22;4448;50.904;4.694;2023-03-01T14:09:58;8.10;99.90
8824;DHT22;4448;50.904;4.694;2023-03-01T14:15:18;8.10;99.90
8824;DHT22;4448;50.904;4.694;2023-03-01T14:20:28;8.10;99.90
8824;DHT22;4448;50.904;4.694;2023-03-01T14:22:57;8.10;99.90
8824;DHT22;4448;50.904;4.694;2023-03-01T14:25:30;8.10;99.90
8824;DHT22;4448;50.904;4.694;2023-03-01T14:27:59;8.10;99.90
8824;DHT22;4448;50.904;4.694;2023-03-01T14:30:49;8.10;99.90
8824;DHT22;4448;50.904;4.694;2023-03-01T14:33:25;8.10;99.90
8824;DHT22;4448;50.904;4.694;2023-03-01T14:36:03;8.10;99.90
8824;DHT22;4448;50.904;4.694;2023-03-01T14:38:43;8.10;99.90
8824;DHT22;4448;50.904;4.694;2023-03-01T14:41:21;8.10;99.90
8824;DHT22;4448;50.904;4.694;2023-03-01T14:43:58;8.10;99.90
8824;DHT22;4448;50.904;4.694;2023-03-01T14:46:38;8.10;99.90
8824;DHT22;4448;50.904;4.694;2023-03-01T14:51:36;8.10;99.90
8824;DHT22;4448;50.904;4.694;2023-03-01T14:54:05;8.10;99.90
8824;DHT22;4448;50.904;4.694;2023-03-01T14:56:45;8.10;99.90
8824;DHT22;4448;50.904;4.694;2023-03-01T14:59:12;8.10;99.90
8824;DHT22;4448;50.904;4.694;2023-03-01T15:01:40;8.10;99.90
8824;DHT22;4448;50.904;4.694;2023-03-01T15:04:11;8.00;99.90
8824;DHT22;4448;50.904;4.694;2023-03-01T15:06:38;8.00;99.90
8824;DHT22;4448;50.904;4.694;2023-03-01T15:09:04;8.00;99.90
8824;DHT22;4448;50.904;4.694;2023-03-01T15:11:32;8.00;99.90
8824;DHT22;4448;50.904;4.694;2023-03-01T15:13:58;8.00;99.90
8824;DHT22;4448;50.904;4.694;2023-03-01T15:16:29;7.90;99.90
8824;DHT22;4448;50.904;4.694;2023-03-01T15:19:01;7.90;99.90
8824;DHT22;4448;50.904;4.694;2023-03-01T15:21:38;7.90;99.90
8824;DHT22;4448;50.904;4.694;2023-03-01T15:26:58;7.80;99.90
8824;DHT22;4448;50.904;4.694;2023-03-01T15:29:29;7.80;99.90
8824;DHT22;4448;50.904;4.694;2023-03-01T15:32:06;7.70;99.90
8824;DHT22;4448;50.904;4.694;2023-03-01T15:34:37;7.70;99.90
8824;DHT22;4448;50.904;4.694;2023-03-01T15:37:04;7.70;99.90
8824;DHT22;4448;50.904;4.694;2023-03-01T15:39:35;7.60;99.90
8824;DHT22;4448;50.904;4.694;2023-03-01T15:42:08;7.60;99.90
8824;DHT22;4448;50.904;4.694;2023-03-01T15:44:36;7.50;99.90
8824;DHT22;4448;50.904;4.694;2023-03-01T15:47:21;7.50;99.90
8824;DHT22;4448;50.904;4.694;2023-03-01T15:49:47;7.50;99.90
8824;DHT22;4448;50.904;4.694;2023-03-01T15:52:26;7.50;99.90
8824;DHT22;4448;50.904;4.694;2023-03-01T15:55:02;7.40;99.90
8824;DHT22;4448;50.904;4.694;2023-03-01T15:57:29;7.40;99.90
8824;DHT22;4448;50.904;4.694;2023-03-01T15:59:55;7.40;99.90
8824;DHT22;4448;50.904;4.694;2023-03-01T16:02:23;7.40;99.90
8824;DHT22;4448;50.904;4.694;2023-03-01T16:04:49;7.40;99.90
8824;DHT22;4448;50.904;4.694;2023-03-01T16:07:15;7.30;99.90
8824;DHT22;4448;50.904;4.694;2023-03-01T16:09:41;7.30;99.90
8824;DHT22;4448;50.904;4.694;2023-03-01T16:12:13;7.30;99.90
8824;DHT22;4448;50.904;4.694;2023-03-01T16:14:39;7.30;99.90
8824;DHT22;4448;50.904;4.694;2023-03-01T16:17:05;7.20;99.90
8824;DHT22;4448;50.904;4.694;2023-03-01T16:19:32;7.20;99.90
8824;DHT22;4448;50.904;4.694;2023-03-01T16:21:58;7.20;99.90
8824;DHT22;4448;50.904;4.694;2023-03-01T16:24:24;7.20;99.90
8824;DHT22;4448;50.904;4.694;2023-03-01T16:26:51;7.10;99.90
8824;DHT22;4448;50.904;4.694;2023-03-01T16:29:17;7.10;99.90
8824;DHT22;4448;50.904;4.694;2023-03-01T16:31:42;7.10;99.90
8824;DHT22;4448;50.904;4.694;2023-03-01T16:34:08;7.10;99.90
8824;DHT22;4448;50.904;4.694;2023-03-01T16:36:33;7.10;99.90
8824;DHT22;4448;50.904;4.694;2023-03-01T16:39:00;7.00;99.90
8824;DHT22;4448;50.904;4.694;2023-03-01T16:41:27;7.00;99.90
8824;DHT22;4448;50.904;4.694;2023-03-01T16:43:52;7.00;99.90
8824;DHT22;4448;50.904;4.694;2023-03-01T16:46:21;7.00;99.90
8824;DHT22;4448;50.904;4.694;2023-03-01T16:48:47;7.00;99.90
8824;DHT22;4448;50.904;4.694;2023-03-01T16:51:14;6.90;99.90
8824;DHT22;4448;50.904;4.694;2023-03-01T16:53:39;6.90;99.90
8824;DHT22;4448;50.904;4.694;2023-03-01T16:56:08;6.90;99.90
8824;DHT22;4448;50.904;4.694;2023-03-01T16:58:35;6.90;99.90
8824;DHT22;4448;50.904;4.694;2023-03-01T17:01:07;6.90;99.90
8824;DHT22;4448;50.904;4.694;2023-03-01T17:03:33;6.80;99.90
8824;DHT22;4448;50.904;4.694;2023-03-01T17:06:07;6.80;99.90
8824;DHT22;4448;50.904;4.694;2023-03-01T17:08:33;6.80;99.90
8824;DHT22;4448;50.904;4.694;2023-03-01T17:11:25;6.80;99.90
8824;DHT22;4448;50.904;4.694;2023-03-01T17:13:51;6.70;99.90
8824;DHT22;4448;50.904;4.694;2023-03-01T17:16:18;6.70;99.90
8824;DHT22;4448;50.904;4.694;2023-03-01T17:18:45;6.70;99.90
8824;DHT22;4448;50.904;4.694;2023-03-01T17:21:11;6.60;99.90
8824;DHT22;4448;50.904;4.694;2023-03-01T17:23:39;6.60;99.90
8824;DHT22;4448;50.904;4.694;2023-03-01T17:26:05;6.60;99.90
8824;DHT22;4448;50.904;4.694;2023-03-01T17:28:33;6.60;99.90
8824;DHT22;4448;50.904;4.694;2023-03-01T17:31:00;6.50;99.90
8824;DHT22;4448;50.904;4.694;2023-03-01T17:33:26;6.50;99.90
8824;DHT22;4448;50.904;4.694;2023-03-01T17:35:52;6.50;99.90
8824;DHT22;4448;50.904;4.694;2023-03-01T17:38:17;6.50;99.90
8824;DHT22;4448;50.904;4.694;2023-03-01T17:40:44;6.40;99.90
8824;DHT22;4448;50.904;4.694;2023-03-01T17:43:13;6.40;99.90
8824;DHT22;4448;50.904;4.694;2023-03-01T17:45:39;6.40;99.90
8824;DHT22;4448;50.904;4.694;2023-03-01T17:48:06;6.40;99.90
8824;DHT22;4448;50.904;4.694;2023-03-01T17:50:32;6.30;99.90
8824;DHT22;4448;50.904;4.694;2023-03-01T17:52:58;6.30;99.90
8824;DHT22;4448;50.904;4.694;2023-03-01T17:55:24;6.30;99.90
8824;DHT22;4448;50.904;4.694;2023-03-01T17:57:50;6.20;99.90
8824;DHT22;4448;50.904;4.694;2023-03-01T18:00:16;6.20;99.90
8824;DHT22;4448;50.904;4.694;2023-03-01T18:02:43;6.20;99.90
8824;DHT22;4448;50.904;4.694;2023-03-01T18:05:09;6.20;99.90
8824;DHT22;4448;50.904;4.694;2023-03-01T18:07:36;6.20;99.90